Terminal Aerodrome Forecast
Issued by NWS

Home | Current Version | Previous Version | Text Only | Print | Product List | Glossary On
Versions: 1 2 3 4 5 6 7 8 9 10 11 12 13 14 15
000
FTUS46 KSGX 222300
TAFSNA
TAF
KSNA 222333Z 2300/2324 23006KT 6SM HZ SKC
     FM230200 VRB03KT 3SM BR FEW001
     FM230900 VRB05KT P6SM SKC WS015/04030KT
     FM232100 09010G20KT P6SM FEW250=

USA.gov is the U.S. government's official web portal to all federal, state and local government web resources and services.